sensor_id;sensor_type;location;lat;lon;timestamp;pressure;altitude;pressure_sealevel;temperature;humidity
60049;BME280;45925;45.544;6.756;2022-08-30T00:03:50;87567.06;;;17.13;46.57
60049;BME280;45925;45.544;6.756;2022-08-30T00:08:52;87559.34;;;17.17;45.88
60049;BME280;45925;45.544;6.756;2022-08-30T00:13:54;87555.88;;;16.93;47.13
60049;BME280;45925;45.544;6.756;2022-08-30T00:18:55;87549.38;;;16.04;49.46
60049;BME280;45925;45.544;6.756;2022-08-30T00:23:56;87554.72;;;16.59;47.67
60049;BME280;45925;45.544;6.756;2022-08-30T00:28:56;87542.91;;;16.93;46.26
60049;BME280;45925;45.544;6.756;2022-08-30T00:33:58;87548.34;;;16.72;47.15
60049;BME280;45925;45.544;6.756;2022-08-30T00:38:58;87540.34;;;16.14;48.44
60049;BME280;45925;45.544;6.756;2022-08-30T00:43:59;87531.38;;;16.43;47.50
60049;BME280;45925;45.544;6.756;2022-08-30T00:49:02;87534.47;;;16.64;47.54
60049;BME280;45925;45.544;6.756;2022-08-30T00:54:03;87537.72;;;16.61;47.03
60049;BME280;45925;45.544;6.756;2022-08-30T00:59:05;87525.69;;;16.05;48.55
60049;BME280;45925;45.544;6.756;2022-08-30T01:04:08;87524.25;;;16.72;47.24
60049;BME280;45925;45.544;6.756;2022-08-30T01:09:10;87518.31;;;16.39;48.10
60049;BME280;45925;45.544;6.756;2022-08-30T01:14:12;87519.66;;;16.17;48.66
60049;BME280;45925;45.544;6.756;2022-08-30T01:19:37;87527.19;;;16.54;48.50
60049;BME280;45925;45.544;6.756;2022-08-30T01:24:39;87509.22;;;16.29;48.11
60049;BME280;45925;45.544;6.756;2022-08-30T01:29:40;87511.13;;;16.48;48.09
60049;BME280;45925;45.544;6.756;2022-08-30T01:34:44;87520.50;;;16.53;47.72
60049;BME280;45925;45.544;6.756;2022-08-30T01:39:48;87512.50;;;16.62;47.58
60049;BME280;45925;45.544;6.756;2022-08-30T01:44:49;87516.81;;;16.54;47.47
60049;BME280;45925;45.544;6.756;2022-08-30T01:49:50;87508.13;;;16.30;48.08
60049;BME280;45925;45.544;6.756;2022-08-30T01:54:51;87512.72;;;16.53;48.29
60049;BME280;45925;45.544;6.756;2022-08-30T01:59:52;87512.81;;;16.41;48.89
60049;BME280;45925;45.544;6.756;2022-08-30T02:04:55;87511.72;;;16.26;48.53
60049;BME280;45925;45.544;6.756;2022-08-30T02:09:56;87513.22;;;16.11;49.10
60049;BME280;45925;45.544;6.756;2022-08-30T02:14:56;87501.25;;;16.22;48.91
60049;BME280;45925;45.544;6.756;2022-08-30T02:19:57;87512.88;;;16.12;49.03
60049;BME280;45925;45.544;6.756;2022-08-30T02:24:58;87506.53;;;16.10;48.28
60049;BME280;45925;45.544;6.756;2022-08-30T02:29:58;87512.81;;;15.65;49.45
60049;BME280;45925;45.544;6.756;2022-08-30T02:34:59;87501.56;;;15.89;47.81
60049;BME280;45925;45.544;6.756;2022-08-30T02:40:00;87503.63;;;15.96;49.49
60049;BME280;45925;45.544;6.756;2022-08-30T02:45:00;87501.13;;;15.71;50.47
60049;BME280;45925;45.544;6.756;2022-08-30T02:50:04;87500.22;;;15.51;49.92
60049;BME280;45925;45.544;6.756;2022-08-30T02:55:06;87490.38;;;16.01;47.88
60049;BME280;45925;45.544;6.756;2022-08-30T03:00:07;87484.56;;;15.75;50.53
60049;BME280;45925;45.544;6.756;2022-08-30T03:05:10;87475.56;;;16.17;48.54
60049;BME280;45925;45.544;6.756;2022-08-30T03:10:13;87472.47;;;16.27;48.47
60049;BME280;45925;45.544;6.756;2022-08-30T03:15:15;87481.28;;;15.91;47.66
60049;BME280;45925;45.544;6.756;2022-08-30T03:20:16;87472.91;;;15.98;47.05
60049;BME280;45925;45.544;6.756;2022-08-30T03:25:16;87467.03;;;16.17;46.49
60049;BME280;45925;45.544;6.756;2022-08-30T03:30:18;87478.00;;;16.10;48.79
60049;BME280;45925;45.544;6.756;2022-08-30T03:35:19;87484.19;;;16.21;47.90
60049;BME280;45925;45.544;6.756;2022-08-30T03:40:21;87481.94;;;16.20;48.30
60049;BME280;45925;45.544;6.756;2022-08-30T03:45:21;87479.72;;;15.74;49.63
60049;BME280;45925;45.544;6.756;2022-08-30T03:50:22;87468.91;;;16.16;47.28
60049;BME280;45925;45.544;6.756;2022-08-30T03:55:23;87465.56;;;15.71;49.14
60049;BME280;45925;45.544;6.756;2022-08-30T04:00:23;87471.81;;;15.99;49.56
60049;BME280;45925;45.544;6.756;2022-08-30T04:05:24;87452.97;;;16.02;47.17
60049;BME280;45925;45.544;6.756;2022-08-30T04:10:26;87458.94;;;15.86;48.00
60049;BME280;45925;45.544;6.756;2022-08-30T04:15:27;87449.50;;;15.50;49.75
60049;BME280;45925;45.544;6.756;2022-08-30T04:20:27;87451.03;;;15.67;49.04
60049;BME280;45925;45.544;6.756;2022-08-30T04:25:28;87442.91;;;15.68;48.94
60049;BME280;45925;45.544;6.756;2022-08-30T04:30:29;87439.47;;;15.04;48.48
60049;BME280;45925;45.544;6.756;2022-08-30T04:35:30;87450.56;;;15.33;48.14
60049;BME280;45925;45.544;6.756;2022-08-30T04:40:30;87453.56;;;15.79;48.36
60049;BME280;45925;45.544;6.756;2022-08-30T04:45:31;87449.50;;;15.34;49.46
60049;BME280;45925;45.544;6.756;2022-08-30T04:50:31;87454.47;;;15.71;46.41
60049;BME280;45925;45.544;6.756;2022-08-30T04:55:32;87455.47;;;15.66;46.07
60049;BME280;45925;45.544;6.756;2022-08-30T05:00:32;87459.78;;;15.62;47.87
60049;BME280;45925;45.544;6.756;2022-08-30T05:05:33;87455.47;;;15.66;47.34
60049;BME280;45925;45.544;6.756;2022-08-30T05:10:43;87460.56;;;15.63;48.31
60049;BME280;45925;45.544;6.756;2022-08-30T05:15:44;87453.97;;;15.81;46.99
60049;BME280;45925;45.544;6.756;2022-08-30T05:20:45;87453.88;;;15.62;47.27
60049;BME280;45925;45.544;6.756;2022-08-30T05:25:45;87456.72;;;15.56;45.10
60049;BME280;45925;45.544;6.756;2022-08-30T05:30:46;87438.78;;;15.80;45.86
60049;BME280;45925;45.544;6.756;2022-08-30T05:35:47;87454.53;;;15.58;47.81
60049;BME280;45925;45.544;6.756;2022-08-30T05:40:47;87456.25;;;15.99;46.95
60049;BME280;45925;45.544;6.756;2022-08-30T05:45:58;87451.41;;;15.97;46.59
60049;BME280;45925;45.544;6.756;2022-08-30T05:51:11;87455.31;;;16.23;43.95
60049;BME280;45925;45.544;6.756;2022-08-30T05:56:14;87452.16;;;16.14;46.71
60049;BME280;45925;45.544;6.756;2022-08-30T06:01:27;87461.69;;;16.09;46.43
60049;BME280;45925;45.544;6.756;2022-08-30T06:06:29;87468.72;;;16.25;46.23
60049;BME280;45925;45.544;6.756;2022-08-30T06:11:30;87468.00;;;16.44;45.46
60049;BME280;45925;45.544;6.756;2022-08-30T06:16:31;87459.72;;;16.54;45.23
60049;BME280;45925;45.544;6.756;2022-08-30T06:21:34;87444.72;;;16.47;46.94
60049;BME280;45925;45.544;6.756;2022-08-30T06:26:40;87454.16;;;16.72;45.40
60049;BME280;45925;45.544;6.756;2022-08-30T06:31:41;87448.59;;;16.89;45.07
60049;BME280;45925;45.544;6.756;2022-08-30T06:36:42;87452.56;;;17.02;45.16
60049;BME280;45925;45.544;6.756;2022-08-30T06:41:43;87451.59;;;17.11;45.80
60049;BME280;45925;45.544;6.756;2022-08-30T06:46:44;87447.34;;;17.22;44.54
60049;BME280;45925;45.544;6.756;2022-08-30T06:51:44;87460.16;;;17.31;42.80
60049;BME280;45925;45.544;6.756;2022-08-30T06:56:45;87457.66;;;17.38;41.88
60049;BME280;45925;45.544;6.756;2022-08-30T07:01:45;87454.47;;;17.25;44.52
60049;BME280;45925;45.544;6.756;2022-08-30T07:06:46;87459.25;;;17.04;46.54
60049;BME280;45925;45.544;6.756;2022-08-30T07:11:47;87458.00;;;17.56;45.84
60049;BME280;45925;45.544;6.756;2022-08-30T07:16:48;87456.97;;;17.41;46.84
60049;BME280;45925;45.544;6.756;2022-08-30T07:21:49;87461.66;;;17.74;45.14
60049;BME280;45925;45.544;6.756;2022-08-30T07:26:49;87459.16;;;18.01;46.80
60049;BME280;45925;45.544;6.756;2022-08-30T07:31:51;87453.72;;;18.10;46.52
60049;BME280;45925;45.544;6.756;2022-08-30T07:36:52;87457.53;;;18.16;45.31
60049;BME280;45925;45.544;6.756;2022-08-30T07:41:52;87457.75;;;18.31;45.09
60049;BME280;45925;45.544;6.756;2022-08-30T07:46:53;87461.22;;;18.38;44.67
60049;BME280;45925;45.544;6.756;2022-08-30T07:51:53;87469.69;;;18.58;45.37
60049;BME280;45925;45.544;6.756;2022-08-30T07:56:55;87465.97;;;18.33;48.73
60049;BME280;45925;45.544;6.756;2022-08-30T08:01:55;87465.53;;;18.54;44.58
60049;BME280;45925;45.544;6.756;2022-08-30T08:06:56;87464.66;;;18.46;45.54
60049;BME280;45925;45.544;6.756;2022-08-30T08:11:57;87455.97;;;18.61;45.25
60049;BME280;45925;45.544;6.756;2022-08-30T08:16:58;87456.63;;;18.81;43.59
60049;BME280;45925;45.544;6.756;2022-08-30T08:21:59;87456.31;;;18.60;44.20
60049;BME280;45925;45.544;6.756;2022-08-30T08:26:59;87464.81;;;18.83;45.29
60049;BME280;45925;45.544;6.756;2022-08-30T08:32:00;87474.19;;;18.61;45.13
60049;BME280;45925;45.544;6.756;2022-08-30T08:37:00;87487.00;;;18.74;45.32
60049;BME280;45925;45.544;6.756;2022-08-30T08:47:21;87477.47;;;19.08;45.54
60049;BME280;45925;45.544;6.756;2022-08-30T08:58:21;87462.47;;;19.66;40.52
60049;BME280;45925;45.544;6.756;2022-08-30T09:03:25;87459.66;;;19.82;39.78
60049;BME280;45925;45.544;6.756;2022-08-30T09:08:26;87464.28;;;19.96;39.11
60049;BME280;45925;45.544;6.756;2022-08-30T09:13:27;87456.13;;;20.01;38.76
60049;BME280;45925;45.544;6.756;2022-08-30T09:18:46;87455.41;;;20.04;38.55
60049;BME280;45925;45.544;6.756;2022-08-30T09:23:51;87462.63;;;19.80;40.28
60049;BME280;45925;45.544;6.756;2022-08-30T09:28:55;87459.03;;;19.92;39.79
60049;BME280;45925;45.544;6.756;2022-08-30T09:39:04;87469.72;;;19.15;45.46
60049;BME280;45925;45.544;6.756;2022-08-30T09:44:24;87469.63;;;19.08;45.40
60049;BME280;45925;45.544;6.756;2022-08-30T09:49:40;87475.19;;;19.71;43.45
60049;BME280;45925;45.544;6.756;2022-08-30T10:00:15;87477.69;;;19.30;42.49
60049;BME280;45925;45.544;6.756;2022-08-30T10:21:38;87463.59;;;20.51;39.47
60049;BME280;45925;45.544;6.756;2022-08-30T10:26:46;87455.81;;;20.54;39.80
60049;BME280;45925;45.544;6.756;2022-08-30T10:31:52;87450.00;;;20.75;37.97
60049;BME280;45925;45.544;6.756;2022-08-30T10:37:08;87444.25;;;21.18;37.96
60049;BME280;45925;45.544;6.756;2022-08-30T10:42:20;87438.66;;;21.23;36.91
60049;BME280;45925;45.544;6.756;2022-08-30T10:47:41;87420.19;;;21.75;35.50
60049;BME280;45925;45.544;6.756;2022-08-30T10:52:53;87419.50;;;22.03;35.88
60049;BME280;45925;45.544;6.756;2022-08-30T10:57:59;87416.47;;;21.80;37.35
60049;BME280;45925;45.544;6.756;2022-08-30T11:13:48;87420.41;;;21.34;37.35
60049;BME280;45925;45.544;6.756;2022-08-30T11:18:54;87416.06;;;21.70;37.14
60049;BME280;45925;45.544;6.756;2022-08-30T11:24:01;87402.47;;;21.32;36.20
60049;BME280;45925;45.544;6.756;2022-08-30T11:29:03;87399.97;;;21.54;35.83
60049;BME280;45925;45.544;6.756;2022-08-30T11:34:05;87399.59;;;21.56;36.25
60049;BME280;45925;45.544;6.756;2022-08-30T11:39:08;87403.63;;;21.39;35.91
60049;BME280;45925;45.544;6.756;2022-08-30T11:55:18;87376.88;;;22.35;33.19
60049;BME280;45925;45.544;6.756;2022-08-30T12:10:43;87356.19;;;22.80;32.36
60049;BME280;45925;45.544;6.756;2022-08-30T12:15:57;87350.56;;;23.74;31.47
60049;BME280;45925;45.544;6.756;2022-08-30T12:21:29;87347.19;;;23.77;31.20
60049;BME280;45925;45.544;6.756;2022-08-30T12:26:34;87329.69;;;23.56;30.89
60049;BME280;45925;45.544;6.756;2022-08-30T12:31:53;87313.22;;;23.56;30.91
60049;BME280;45925;45.544;6.756;2022-08-30T12:37:02;87320.38;;;23.48;31.11
60049;BME280;45925;45.544;6.756;2022-08-30T12:42:22;87301.00;;;23.91;31.19
60049;BME280;45925;45.544;6.756;2022-08-30T12:47:32;87279.94;;;24.81;30.65
60049;BME280;45925;45.544;6.756;2022-08-30T12:52:45;87276.56;;;24.42;29.27
60049;BME280;45925;45.544;6.756;2022-08-30T12:57:58;87290.50;;;23.91;29.69
60049;BME280;45925;45.544;6.756;2022-08-30T13:03:28;87289.53;;;24.15;30.54
60049;BME280;45925;45.544;6.756;2022-08-30T13:08:36;87299.44;;;24.00;30.87
60049;BME280;45925;45.544;6.756;2022-08-30T13:13:52;87296.19;;;23.85;33.12
60049;BME280;45925;45.544;6.756;2022-08-30T13:18:55;87282.50;;;24.47;32.50
60049;BME280;45925;45.544;6.756;2022-08-30T13:24:14;87277.28;;;24.43;32.47
60049;BME280;45925;45.544;6.756;2022-08-30T13:29:20;87289.50;;;24.22;32.89
60049;BME280;45925;45.544;6.756;2022-08-30T13:34:21;87301.16;;;23.65;34.75
60049;BME280;45925;45.544;6.756;2022-08-30T13:39:23;87308.06;;;23.41;34.34
60049;BME280;45925;45.544;6.756;2022-08-30T13:44:24;87306.97;;;23.35;34.86
60049;BME280;45925;45.544;6.756;2022-08-30T13:49:30;87314.09;;;23.31;35.81
60049;BME280;45925;45.544;6.756;2022-08-30T13:54:31;87310.06;;;23.08;35.92
60049;BME280;45925;45.544;6.756;2022-08-30T13:59:33;87319.47;;;22.98;38.17
60049;BME280;45925;45.544;6.756;2022-08-30T14:04:34;87338.28;;;22.68;38.36
60049;BME280;45925;45.544;6.756;2022-08-30T14:09:35;87374.97;;;22.18;40.60
60049;BME280;45925;45.544;6.756;2022-08-30T14:14:36;87414.66;;;22.27;42.39
60049;BME280;45925;45.544;6.756;2022-08-30T14:19:36;87468.84;;;21.06;47.56
60049;BME280;45925;45.544;6.756;2022-08-30T14:24:37;87488.19;;;20.94;45.54
60049;BME280;45925;45.544;6.756;2022-08-30T14:29:37;87462.16;;;20.08;52.26
60049;BME280;45925;45.544;6.756;2022-08-30T14:34:38;87359.88;;;18.53;54.24
60049;BME280;45925;45.544;6.756;2022-08-30T14:39:38;87387.63;;;20.11;55.34
60049;BME280;45925;45.544;6.756;2022-08-30T14:44:39;87395.25;;;21.08;53.49
60049;BME280;45925;45.544;6.756;2022-08-30T14:49:39;87408.28;;;20.93;53.03
60049;BME280;45925;45.544;6.756;2022-08-30T14:54:40;87417.84;;;20.68;52.20
60049;BME280;45925;45.544;6.756;2022-08-30T14:59:41;87403.56;;;20.54;52.19
60049;BME280;45925;45.544;6.756;2022-08-30T15:04:41;87390.09;;;20.52;54.58
60049;BME280;45925;45.544;6.756;2022-08-30T15:09:42;87383.16;;;20.19;58.09
60049;BME280;45925;45.544;6.756;2022-08-30T15:14:43;87372.19;;;20.51;56.09
60049;BME280;45925;45.544;6.756;2022-08-30T15:19:44;87369.94;;;21.26;54.17
60049;BME280;45925;45.544;6.756;2022-08-30T15:24:45;87355.94;;;23.56;47.00
60049;BME280;45925;45.544;6.756;2022-08-30T15:29:45;87347.78;;;24.07;47.06
60049;BME280;45925;45.544;6.756;2022-08-30T15:34:46;87352.56;;;22.35;51.23
60049;BME280;45925;45.544;6.756;2022-08-30T15:39:49;87348.78;;;22.39;49.82
60049;BME280;45925;45.544;6.756;2022-08-30T15:44:53;87343.44;;;19.88;58.85
60049;BME280;45925;45.544;6.756;2022-08-30T15:49:56;87357.41;;;20.10;58.10
60049;BME280;45925;45.544;6.756;2022-08-30T15:54:57;87349.00;;;21.12;55.25
60049;BME280;45925;45.544;6.756;2022-08-30T15:59:58;87345.22;;;19.77;59.00
60049;BME280;45925;45.544;6.756;2022-08-30T16:04:59;87341.19;;;20.42;56.24
60049;BME280;45925;45.544;6.756;2022-08-30T16:09:59;87353.63;;;20.04;54.60
60049;BME280;45925;45.544;6.756;2022-08-30T16:15:00;87353.34;;;20.16;55.31
60049;BME280;45925;45.544;6.756;2022-08-30T16:20:01;87327.06;;;19.50;59.91
60049;BME280;45925;45.544;6.756;2022-08-30T16:25:03;87291.41;;;19.65;60.61
60049;BME280;45925;45.544;6.756;2022-08-30T16:30:04;87280.00;;;18.60;61.14
60049;BME280;45925;45.544;6.756;2022-08-30T16:35:05;87287.47;;;18.96;56.17
60049;BME280;45925;45.544;6.756;2022-08-30T16:40:06;87313.72;;;19.59;56.29
60049;BME280;45925;45.544;6.756;2022-08-30T16:45:07;87336.44;;;19.54;53.96
60049;BME280;45925;45.544;6.756;2022-08-30T16:50:08;87313.34;;;19.57;54.12
60049;BME280;45925;45.544;6.756;2022-08-30T16:55:09;87332.38;;;18.55;58.23
60049;BME280;45925;45.544;6.756;2022-08-30T17:00:10;87343.25;;;18.91;58.54
60049;BME280;45925;45.544;6.756;2022-08-30T17:05:12;87337.31;;;18.91;57.83
60049;BME280;45925;45.544;6.756;2022-08-30T17:10:12;87361.28;;;19.07;57.66
60049;BME280;45925;45.544;6.756;2022-08-30T17:15:14;87374.66;;;18.45;61.82
60049;BME280;45925;45.544;6.756;2022-08-30T17:20:15;87392.97;;;18.82;61.93
60049;BME280;45925;45.544;6.756;2022-08-30T17:25:16;87398.63;;;18.04;66.35
60049;BME280;45925;45.544;6.756;2022-08-30T17:30:17;87396.50;;;17.21;69.47
60049;BME280;45925;45.544;6.756;2022-08-30T17:35:19;87410.63;;;18.13;64.38
60049;BME280;45925;45.544;6.756;2022-08-30T17:40:19;87411.84;;;18.45;64.73
60049;BME280;45925;45.544;6.756;2022-08-30T17:45:20;87426.94;;;18.09;63.47
60049;BME280;45925;45.544;6.756;2022-08-30T17:50:21;87433.38;;;17.30;66.88
60049;BME280;45925;45.544;6.756;2022-08-30T17:55:21;87436.72;;;17.93;65.01
60049;BME280;45925;45.544;6.756;2022-08-30T18:00:22;87437.13;;;17.95;64.46
60049;BME280;45925;45.544;6.756;2022-08-30T18:05:23;87435.09;;;17.85;65.94
60049;BME280;45925;45.544;6.756;2022-08-30T18:10:23;87412.13;;;17.67;65.29
60049;BME280;45925;45.544;6.756;2022-08-30T18:15:24;87402.25;;;17.53;66.33
60049;BME280;45925;45.544;6.756;2022-08-30T18:20:24;87408.31;;;17.61;66.65
60049;BME280;45925;45.544;6.756;2022-08-30T18:25:25;87413.41;;;17.11;68.74
60049;BME280;45925;45.544;6.756;2022-08-30T18:30:27;87424.31;;;17.40;66.43
60049;BME280;45925;45.544;6.756;2022-08-30T18:35:27;87442.91;;;17.42;65.87
60049;BME280;45925;45.544;6.756;2022-08-30T18:40:28;87438.25;;;17.32;64.87
60049;BME280;45925;45.544;6.756;2022-08-30T18:45:29;87411.69;;;16.99;65.69
60049;BME280;45925;45.544;6.756;2022-08-30T18:50:30;87412.50;;;17.04;66.46
60049;BME280;45925;45.544;6.756;2022-08-30T18:55:31;87418.34;;;16.81;66.86
60049;BME280;45925;45.544;6.756;2022-08-30T19:00:31;87430.00;;;16.71;65.52
60049;BME280;45925;45.544;6.756;2022-08-30T19:05:32;87443.91;;;16.43;67.71
60049;BME280;45925;45.544;6.756;2022-08-30T19:10:34;87438.69;;;16.95;67.07
60049;BME280;45925;45.544;6.756;2022-08-30T19:15:35;87448.19;;;16.36;68.34
60049;BME280;45925;45.544;6.756;2022-08-30T19:20:36;87442.22;;;16.87;66.29
60049;BME280;45925;45.544;6.756;2022-08-30T19:25:38;87439.03;;;16.58;66.72
60049;BME280;45925;45.544;6.756;2022-08-30T19:30:39;87434.13;;;16.72;67.66
60049;BME280;45925;45.544;6.756;2022-08-30T19:35:40;87442.34;;;16.39;68.05
60049;BME280;45925;45.544;6.756;2022-08-30T19:40:40;87442.09;;;16.28;67.67
60049;BME280;45925;45.544;6.756;2022-08-30T19:45:41;87434.31;;;16.63;67.64
60049;BME280;45925;45.544;6.756;2022-08-30T19:50:42;87449.47;;;16.61;65.46
60049;BME280;45925;45.544;6.756;2022-08-30T19:55:42;87448.47;;;16.30;66.15
60049;BME280;45925;45.544;6.756;2022-08-30T20:00:46;87455.19;;;15.55;70.17
60049;BME280;45925;45.544;6.756;2022-08-30T20:05:47;87458.34;;;16.60;66.70
60049;BME280;45925;45.544;6.756;2022-08-30T20:10:47;87452.38;;;16.40;68.13
60049;BME280;45925;45.544;6.756;2022-08-30T20:15:53;87459.81;;;16.42;67.05
60049;BME280;45925;45.544;6.756;2022-08-30T20:20:54;87460.47;;;16.55;66.70
60049;BME280;45925;45.544;6.756;2022-08-30T20:25:56;87461.63;;;16.57;67.29
60049;BME280;45925;45.544;6.756;2022-08-30T20:30:56;87455.56;;;16.34;69.11
60049;BME280;45925;45.544;6.756;2022-08-30T20:36:01;87437.97;;;16.27;68.91
60049;BME280;45925;45.544;6.756;2022-08-30T20:41:08;87428.03;;;16.29;68.05
60049;BME280;45925;45.544;6.756;2022-08-30T20:46:16;87430.94;;;15.64;71.30
60049;BME280;45925;45.544;6.756;2022-08-30T20:51:18;87428.56;;;15.27;73.51
60049;BME280;45925;45.544;6.756;2022-08-30T20:56:20;87419.84;;;15.63;71.83
60049;BME280;45925;45.544;6.756;2022-08-30T21:01:21;87409.41;;;15.91;70.76
60049;BME280;45925;45.544;6.756;2022-08-30T21:06:22;87402.53;;;16.15;70.72
60049;BME280;45925;45.544;6.756;2022-08-30T21:11:24;87395.00;;;16.10;69.71
60049;BME280;45925;45.544;6.756;2022-08-30T21:16:25;87394.25;;;16.09;70.08
60049;BME280;45925;45.544;6.756;2022-08-30T21:21:26;87398.63;;;15.57;72.45
60049;BME280;45925;45.544;6.756;2022-08-30T21:26:29;87402.97;;;16.01;70.88
60049;BME280;45925;45.544;6.756;2022-08-30T21:31:30;87401.78;;;15.99;70.66
60049;BME280;45925;45.544;6.756;2022-08-30T21:36:31;87400.47;;;15.89;71.14
60049;BME280;45925;45.544;6.756;2022-08-30T21:41:49;87405.22;;;15.71;71.17
60049;BME280;45925;45.544;6.756;2022-08-30T21:46:52;87389.88;;;15.78;70.14
60049;BME280;45925;45.544;6.756;2022-08-30T21:51:53;87385.91;;;15.84;70.36
60049;BME280;45925;45.544;6.756;2022-08-30T21:56:57;87386.66;;;15.69;71.14
60049;BME280;45925;45.544;6.756;2022-08-30T22:02:01;87382.81;;;15.63;70.64
60049;BME280;45925;45.544;6.756;2022-08-30T22:07:02;87393.00;;;15.71;69.95
60049;BME280;45925;45.544;6.756;2022-08-30T22:12:04;87394.31;;;15.49;69.54
60049;BME280;45925;45.544;6.756;2022-08-30T22:17:05;87401.53;;;15.72;67.21
60049;BME280;45925;45.544;6.756;2022-08-30T22:22:05;87394.66;;;15.32;70.86
60049;BME280;45925;45.544;6.756;2022-08-30T22:27:06;87403.44;;;15.43;70.75
60049;BME280;45925;45.544;6.756;2022-08-30T22:32:07;87399.03;;;15.60;70.76
60049;BME280;45925;45.544;6.756;2022-08-30T22:37:08;87396.19;;;15.65;71.06
60049;BME280;45925;45.544;6.756;2022-08-30T22:42:08;87387.16;;;15.58;70.29
60049;BME280;45925;45.544;6.756;2022-08-30T22:47:09;87391.25;;;15.60;70.51
60049;BME280;45925;45.544;6.756;2022-08-30T22:52:09;87397.03;;;15.53;70.19
60049;BME280;45925;45.544;6.756;2022-08-30T22:57:10;87386.16;;;15.47;71.34
60049;BME280;45925;45.544;6.756;2022-08-30T23:02:14;87382.47;;;15.48;69.70
60049;BME280;45925;45.544;6.756;2022-08-30T23:07:14;87370.50;;;15.28;71.02
60049;BME280;45925;45.544;6.756;2022-08-30T23:12:15;87370.53;;;14.99;71.82
60049;BME280;45925;45.544;6.756;2022-08-30T23:17:15;87369.25;;;15.21;70.00
60049;BME280;45925;45.544;6.756;2022-08-30T23:22:16;87366.97;;;15.04;70.99
60049;BME280;45925;45.544;6.756;2022-08-30T23:27:16;87364.97;;;15.13;69.53
60049;BME280;45925;45.544;6.756;2022-08-30T23:32:35;87360.28;;;15.03;69.34
60049;BME280;45925;45.544;6.756;2022-08-30T23:37:54;87374.38;;;14.90;68.75
60049;BME280;45925;45.544;6.756;2022-08-30T23:43:13;87377.00;;;14.77;70.07
60049;BME280;45925;45.544;6.756;2022-08-30T23:48:33;87374.78;;;14.63;70.23
60049;BME280;45925;45.544;6.756;2022-08-30T23:53:52;87379.06;;;14.72;70.19
60049;BME280;45925;45.544;6.756;2022-08-30T23:59:11;87363.78;;;14.54;71.68
